METAR stanice u blizini

 

LYBE - Beograd / Surčin, Srbija
Ažurirano: 20/04/2021 09:00
Partly Cloudy
Partly Cloudy
 Pravac vetra Z
Vetar: Z 17 km/h
Temperatura: 8°C
Osećaj hladnoće: 5°C
Tačka rose: 8°C
Vlažnost: 100%
Pritisak: 1014 hPa
Oblaci: Partly Cloudy
Vidljivost: 10 km
Cloud details: Few Clouds 183 m
Partly Cloudy 1219 m
2021/04/20 07:00 LYBE 200700Z 26009KT 9999 FEW006 SCT040 08/08 Q1014 NOSIG
LYBT - Beograd / Batajnica, Srbija
Ažurirano: 20/04/2021 09:00
Mostly Cloudy
Mostly Cloudy
 Pravac vetra ZJZ
Vetar: ZJZ 13 km/h
Temperatura: 9°C
Osećaj hladnoće: 7°C
Tačka rose: 9°C
Vlažnost: 100%
Pritisak: 1014 hPa
Oblaci: Mostly Cloudy
Vidljivost: 8 km
Cloud details: Mostly Cloudy 152 m
2021/04/20 07:00 LYBT 200700Z 24007KT 200V260 8000 BKN005 09/09 Q1014 NOSIG
LYVR - Vršac, Srbija
Ažurirano: 20/04/2021 09:00
Mostly Cloudy
Mostly Cloudy
 Pravac vetra Z
Vetar: Z 7 km/h
Temperatura: 9°C
Osećaj hladnoće: 8°C
Tačka rose: 7°C
Vlažnost: 87%
Pritisak: 1013 hPa
Oblaci: Mostly Cloudy
Vidljivost: 6 km
Cloud details: Mostly Cloudy 305 m
2021/04/20 07:00 LYVR 200700Z 27004KT 200V330 6000 BKN010 09/07 Q1013 NOSIG
 
LYKV - Lađevci, Srbija
Ažurirano: 20/04/2021 09:00
Slaba kiša, Mist, Pretežno oblačno
Slaba kiša, Mist, Pretežno oblačno
 Pravac vetra calm
Vetar: Tišina
Temperatura: 8°C
Tačka rose: 8°C
Vlažnost: 100%
Pritisak: 1014 hPa
Pregled: Slaba kiša, Mist
Oblaci: Mostly Cloudy
Vidljivost: 4 km
Cloud details: Mostly Cloudy 914 m
2021/04/20 07:00 LYKV 200700Z 00000KT 4000 -RA BR BKN030 08/08 Q1014 BECMG 6000 NSW
LYNI - Niš, Srbija
Ažurirano: 20/04/2021 09:00
Mostly Cloudy
Mostly Cloudy
 Pravac vetra JJZ
Vetar: JJZ 6 km/h
Temperatura: 9°C
Tačka rose: 6°C
Vlažnost: 82%
Pritisak: 1014 hPa
Oblaci: Mostly Cloudy
Vidljivost: 10 km
Cloud details: Few Clouds 305 m
Mostly Cloudy 1219 m
2021/04/20 07:00 LYNI 200700Z 20003KT 130V260 9999 FEW010 BKN040 09/06 Q1014 NOSIG
BKPR - Priština, Srbija
Ažurirano: 20/04/2021 09:30
Mostly Cloudy
Mostly Cloudy
 Pravac vetra SZ
Vetar: SZ 7 km/h
Temperatura: 6°C
Osećaj hladnoće: 4°C
Tačka rose: 2°C
Vlažnost: 76%
Pritisak: 1014 hPa
Oblaci: Mostly Cloudy
Vidljivost: 10 km
Cloud details: Partly Cloudy 610 m
Mostly Cloudy 1219 m
2021/04/20 07:30 BKPR 200730Z 32004KT 290V350 9999 SCT020 BKN040 06/02 Q1014 NOSIG
 
LHPP - Pecs / Pogany, Hungary
Ažurirano: 20/04/2021 08:45
Mist, Delimično oblačno
Mist, Delimično oblačno
 Pravac vetra calm
Vetar: Tišina
Temperatura: 9°C
Tačka rose: 7°C
Vlažnost: 87%
Pritisak: 1014 hPa
Pregled: Mist
Oblaci: Partly Cloudy
Vidljivost: 4 km
Cloud details: Partly Cloudy 183 m
Partly Cloudy 2530 m
2021/04/20 06:45 LHPP 200645Z 00000KT 4000 BR SCT006 SCT083 09/07 Q1014
LHUD - Szeged, Hungary
Ažurirano: 04/07/2019 01:45
NOT Current
Vedro
Vedro
 Pravac vetra S
Vetar: S 7 km/h
Temperatura: 18°C
Tačka rose: 13°C
Vlažnost: 73%
Pritisak: 1019 hPa
Pregled: Vedro
Vidljivost: greater than 10 km
2019/07/03 23:45 LHUD 032345Z 35004KT CAVOK 18/13 Q1019
LRTR - Timisoara, Romania
Ažurirano: 20/04/2021 09:00
Vedro
Vedro
 Pravac vetra Z
Vetar: Z 6 km/h
Temperatura: 9°C
Tačka rose: 9°C
Vlažnost: 100%
Pritisak: 1013 hPa
Pregled: Vedro
Vidljivost: greater than 10 km
2021/04/20 07:00 LRTR 200700Z 27003KT 220V320 CAVOK 09/09 Q1013
 
LRCV - Craiova, Romania
Ažurirano: 20/04/2021 09:00
Vedro
Vedro
 Pravac vetra ZJZ
Vetar: ZJZ 9 km/h
Temperatura: 7°C
Osećaj hladnoće: 6°C
Tačka rose: 5°C
Vlažnost: 87%
Pritisak: 1010 hPa
Pregled: Vedro
Vidljivost: greater than 10 km
2021/04/20 07:00 LRCV 200700Z 25005KT CAVOK 07/05 Q1010 R27/19//95
LBSF - Sofia, Bulgaria
Ažurirano: 20/04/2021 09:00
Mostly Cloudy
Mostly Cloudy
 Pravac vetra ZSZ
Vetar: ZSZ 20 km/h
Temperatura: 7°C
Osećaj hladnoće: 4°C
Tačka rose: 3°C
Vlažnost: 76%
Pritisak: 1013 hPa
Oblaci: Mostly Cloudy
Vidljivost: 10 km
Cloud details: Partly Cloudy 671 m
Mostly Cloudy 1341 m
2021/04/20 07:00 LBSF 200700Z 29011KT 9999 SCT022 BKN044 07/03 Q1013 NOSIG
LWSK - Skoplje, Makedonija
Ažurirano: 20/04/2021 09:00
Mostly Cloudy
Mostly Cloudy
 Pravac vetra varies
Vetar: varies 2 km/h
Temperatura: 9°C
Tačka rose: 4°C
Vlažnost: 71%
Pritisak: 1015 hPa
Oblaci: Mostly Cloudy
Vidljivost: 10 km
Cloud details: Mostly Cloudy 1829 m
2021/04/20 07:00 LWSK 200700Z VRB01KT 9999 BKN060 09/04 Q1015 NOSIG
 
LYPG - Podgorica, Crna Gora
Ažurirano: 20/04/2021 09:00
Oblačno
Oblačno
 Pravac vetra varies
Vetar: varies 4 km/h
Temperatura: 10°C
Tačka rose: 7°C
Vlažnost: 82%
Pritisak: 1015 hPa
Oblaci: Oblačno
Vidljivost: 10 km
Cloud details: Few Clouds 518 m
Mostly Cloudy 1219 m
Oblačno 2438 m
2021/04/20 07:00 LYPG 200700Z VRB02KT 9999 FEW017 BKN040 OVC080 10/07 Q1015 NOSIG
LQSA - Sarajevo, Bosna i Hercegovina
Ažurirano: 20/04/2021 09:00
Mostly Cloudy
Mostly Cloudy
 Pravac vetra varies
Vetar: varies 4 km/h
Temperatura: 7°C
Tačka rose: 3°C
Vlažnost: 76%
Pritisak: 1013 hPa
Oblaci: Mostly Cloudy
Vidljivost: 10 km
Cloud details: Few Clouds 762 m
Mostly Cloudy 1829 m
2021/04/20 07:00 LQSA 200700Z VRB02KT 9999 FEW025 BKN060 07/03 Q1013 NOSIG
LDOS - Osijek, Hrvatksa
Ažurirano: 20/04/2021 09:00
Mostly Cloudy
Mostly Cloudy
 Pravac vetra Z
Vetar: Z 13 km/h
Temperatura: 8°C
Osećaj hladnoće: 6°C
Tačka rose: 7°C
Vlažnost: 93%
Pritisak: 1014 hPa
Oblaci: Mostly Cloudy
Vidljivost: 6 km
Cloud details: Partly Cloudy 305 m
Mostly Cloudy 914 m
2021/04/20 07:00 LDOS 200700Z 26007KT 6000 SCT010 BKN030 08/07 Q1014